Pagrindinis puslapis
METAR-TAF:

METAR-TAF

Oro uostai :

Nižnekamskas, Rusija

platuma: 55-33-48N, ilguma: 052-05-42E, Aukštis: 196 m

Dabartinis oras

Ataskaita buvo paskelbta 21 minutes, ne 11:30 UTC
Vėjas 8 kt iš Šiaurės/Šiaurės Vakarų
Temperatūra 22°C
Drėgmė 33%
Slėgis 1022 hPa
Matomumas 10 km arba daugiau
nėra debesų žemiau 1500 m ir nėra kamuolinių lietaus debesų

METAR: UWKE 291130Z 33004MPS CAVOK 22/05 Q1022 R03/090070 NOSIG RMK QFE749/0999

Laikas: 14:51 (11:51 UTC)

Prognozė

Ataskaita buvo paskelbta 1 valandą ir 6 minutes, ne 10:45 UTC
Prognozė galioja nuo 29 metu 12 UTC su 30 metu 12 UTC
Vėjas 6 kt iš Šiaurės/Šiaurės Rytų su gūsio iki 16 kt
Matomumas 10 km arba daugiau
Mažai debesys ne aukštis 3000 ft
Tapsmas
nuo 29 metu 16 UTC su 29 metu 18 UTC
Vėjas 6 kt iš Rytų/Pietryčių su gūsio iki 16 kt
Laikinai
nuo 29 metu 23 UTC su 30 metu 02 UTC
Matomumas: 6000 m
Išsisklaidę debesys ne aukštis 1600 ft

TAF: UWKE 291045Z 2912/3012 02003G08MPS 9999 FEW030 BECMG 2916/2918 11003G08MPS TEMPO 2923/3002 6000 SCT016

Orai ataskaitas ir orų prognozės (METAR, TAF).

turimą stotys yra geltonos ir raudonos taškus žemėlapyje.

Perkelti pele per norėdami pamatyti stoties vardą.

Tada spustelėkite, norėdami matyti oro stebėjimo ir prognozės.

Norėdami pakeisti žemėlapį: spustelėkite ant žalios mygtukų su juodo kryžiaus žemyn,; žalią mygtuką su brūkšneliu, jei norite nutolinti; arba žalių rodyklių gretimoms žemėlapius.


METAR-TAF: